Time;durP1;ratioP1;P1;durP2;ratioP2;P2;SDS_P1;SDS_P2;PMS_P1;PMS_P2;Temp;Humidity;BMP_temperature;BMP_pressure;BME280_temperature;BME280_humidity;BME280_pressure;Samples;Min_cycle;Max_cycle;Signal;HPM_P1;HPM_P2
2022/03/17 00:01:10;;;;;;;;;4.00;4.00;;;;;20.02;42.40;101730.41;5076801;27;45418;-53
2022/03/17 00:03:35;;;;;;;;;4.25;4.00;;;;;20.02;42.19;101736.53;5077010;27;45591;-54
2022/03/17 00:06:00;;;;;;;;;3.00;3.00;;;;;20.02;41.76;101740.94;5075219;27;47897;-56
2022/03/17 00:08:26;;;;;;;;;3.25;3.25;;;;;20.00;42.10;101741.03;5075349;28;45346;-54
2022/03/17 00:10:51;;;;;;;;;4.25;4.00;;;;;20.00;42.30;101748.91;5076836;27;45852;-52
2022/03/17 00:13:17;;;;;;;;;3.00;3.00;;;;;20.00;42.31;101748.91;5076746;27;45556;-55
2022/03/17 00:15:42;;;;;;;;;4.50;3.00;;;;;20.00;41.59;101755.94;5076273;27;45373;-55
2022/03/17 00:18:08;;;;;;;;;3.00;3.00;;;;;19.99;41.57;101756.84;5076231;27;45415;-53
2022/03/17 00:20:34;;;;;;;;;3.75;3.75;;;;;19.98;42.20;101753.38;5076687;27;45387;-55
2022/03/17 00:22:59;;;;;;;;;3.00;3.00;;;;;19.96;41.85;101755.19;5076790;27;45508;-53
2022/03/17 00:25:25;;;;;;;;;6.25;3.00;;;;;19.97;41.86;101756.91;5076183;27;46954;-52
2022/03/17 00:27:51;;;;;;;;;3.25;3.25;;;;;19.97;41.67;101763.94;5076873;27;45216;-55
2022/03/17 00:30:17;;;;;;;;;5.00;5.00;;;;;19.97;42.19;101771.81;5076534;27;45287;-49
2022/03/17 00:32:42;;;;;;;;;5.00;4.75;;;;;19.96;42.08;101773.63;5076583;27;45204;-51
2022/03/17 00:37:53;;;;;;;;;7.00;3.25;;;;;19.96;41.67;101781.50;5076499;28;45975;-51
2022/03/17 00:40:18;;;;;;;;;7.25;5.50;;;;;19.96;41.80;101785.91;5076283;27;45456;-52
2022/03/17 00:42:44;;;;;;;;;4.00;4.00;;;;;19.95;42.16;101792.94;5076528;27;45453;-50
2022/03/17 00:45:11;;;;;;;;;3.25;3.25;;;;;19.95;41.69;101787.69;5075982;28;45974;-52
2022/03/17 00:47:37;;;;;;;;;5.25;4.25;;;;;19.93;41.74;101793.00;5076111;27;46090;-49
2022/03/17 00:50:06;;;;;;;;;5.50;5.50;;;;;19.93;42.16;101803.53;5076318;27;45432;-51
2022/03/17 00:52:31;;;;;;;;;3.50;3.50;;;;;19.93;42.14;101800.03;5076382;27;45403;-49
2022/03/17 00:54:57;;;;;;;;;5.75;4.00;;;;;19.95;42.08;101802.63;5057827;28;48291;-54
2022/03/17 00:57:23;;;;;;;;;4.00;4.00;;;;;19.97;41.86;101803.41;5076060;27;45471;-53
2022/03/17 00:59:49;;;;;;;;;5.25;5.00;;;;;19.99;42.24;101810.34;5076124;27;45424;-47
2022/03/17 01:02:15;;;;;;;;;4.50;4.50;;;;;20.04;42.18;101818.06;5076220;27;45294;-52
2022/03/17 01:04:40;;;;;;;;;6.00;6.00;;;;;20.09;42.29;101826.63;5075838;27;46179;-51
2022/03/17 01:07:06;;;;;;;;;5.00;5.00;;;;;20.13;41.77;101817.72;5075979;28;45434;-53
2022/03/17 01:09:32;;;;;;;;;5.00;5.00;;;;;20.19;41.55;101825.34;5079581;27;45389;-52
2022/03/17 01:11:58;;;;;;;;;5.00;5.00;;;;;20.25;41.43;101816.38;5079603;27;45492;-51
2022/03/17 01:14:23;;;;;;;;;4.50;4.00;;;;;20.30;41.48;101826.72;5079368;27;45596;-53
2022/03/17 01:16:50;;;;;;;;;4.75;4.75;;;;;20.34;41.99;101831.81;5079278;27;45338;-51
2022/03/17 01:19:19;;;;;;;;;4.00;4.00;;;;;20.38;41.50;101833.41;5079405;27;45306;-52
2022/03/17 01:21:48;;;;;;;;;5.25;5.25;;;;;20.44;41.79;101831.47;5079426;27;45528;-52
2022/03/17 01:24:14;;;;;;;;;5.00;5.00;;;;;20.49;41.26;101834.75;5079032;27;46130;-55
2022/03/17 01:26:40;;;;;;;;;7.50;3.75;;;;;20.52;41.63;101846.03;5079080;27;45896;-54
2022/03/17 01:29:05;;;;;;;;;5.50;4.75;;;;;20.57;41.72;101851.13;5079271;27;45403;-55
2022/03/17 01:31:31;;;;;;;;;5.00;3.75;;;;;20.61;41.32;101850.09;5078155;28;45559;-54
2022/03/17 01:33:58;;;;;;;;;5.25;3.50;;;;;20.64;41.46;101860.50;5079284;27;47544;-55
2022/03/17 01:36:23;;;;;;;;;5.25;4.00;;;;;20.69;41.52;101861.16;5079510;27;45480;-51
2022/03/17 01:38:49;;;;;;;;;5.25;3.00;;;;;20.73;41.27;101867.16;5079175;27;45306;-55
2022/03/17 01:41:14;;;;;;;;;5.50;4.00;;;;;20.76;40.92;101868.88;5079205;27;45474;-50
2022/03/17 01:43:39;;;;;;;;;2.50;2.50;;;;;20.78;41.25;101867.91;5078816;27;45479;-49
2022/03/17 01:46:05;;;;;;;;;5.00;4.00;;;;;20.83;41.27;101867.69;5078844;27;45270;-51
2022/03/17 01:48:30;;;;;;;;;4.25;3.50;;;;;20.85;40.81;101869.34;5079016;27;45301;-52
2022/03/17 01:50:55;;;;;;;;;4.50;2.00;;;;;20.86;40.98;101870.22;5079315;27;45652;-52
2022/03/17 01:53:24;;;;;;;;;4.00;3.50;;;;;20.91;40.91;101881.41;5078663;27;45371;-52
2022/03/17 01:55:50;;;;;;;;;2.75;2.75;;;;;20.93;40.69;101881.38;5077470;27;45742;-52
2022/03/17 01:58:17;;;;;;;;;3.00;3.00;;;;;20.94;40.49;101875.19;5077473;28;45446;-52
2022/03/17 02:00:43;;;;;;;;;2.25;2.25;;;;;20.93;40.88;101876.94;5078841;27;45276;-54
2022/03/17 02:03:09;;;;;;;;;2.25;2.25;;;;;20.96;40.69;101887.38;5077207;28;47054;-50
2022/03/17 02:05:34;;;;;;;;;3.50;3.00;;;;;20.96;40.39;101890.00;5078364;27;45322;-53
2022/03/17 02:08:01;;;;;;;;;4.75;3.00;;;;;20.96;40.42;101887.38;5078829;27;45390;-52
2022/03/17 02:10:26;;;;;;;;;3.50;3.00;;;;;20.96;40.35;101884.75;5079023;27;45611;-55
2022/03/17 02:13:10;;;;;;;;;3.00;3.00;;;;;20.95;40.56;101896.19;5078283;27;45381;-56
2022/03/17 02:15:36;;;;;;;;;3.00;3.00;;;;;20.95;40.32;101901.47;5078357;27;45920;-55
2022/03/17 02:18:06;;;;;;;;;4.00;2.75;;;;;20.94;40.38;101905.03;5078055;28;45432;-53
2022/03/17 02:20:33;;;;;;;;;2.50;2.50;;;;;20.96;40.57;101907.59;5078392;27;45383;-51
2022/03/17 02:25:33;;;;;;;;;1.00;1.00;;;;;20.95;40.30;101911.13;5078517;27;47437;-52
2022/03/17 02:25:50;;;;;;;;;3.00;3.00;;;;;20.95;40.30;101919.03;5078055;28;45444;-52
2022/03/17 02:28:16;;;;;;;;;3.75;2.50;;;;;20.94;40.42;101923.47;5078256;27;45201;-55
2022/03/17 02:30:41;;;;;;;;;2.75;2.75;;;;;20.94;40.62;101936.66;5078443;27;45500;-53
2022/03/17 02:33:09;;;;;;;;;2.50;2.50;;;;;20.94;40.78;101925.25;5078013;27;45968;-55
2022/03/17 02:35:37;;;;;;;;;5.00;4.00;;;;;20.95;40.14;101933.09;5078023;27;45353;-53
2022/03/17 02:38:03;;;;;;;;;3.00;3.00;;;;;20.95;40.67;101930.47;5078031;27;45443;-54
2022/03/17 02:40:30;;;;;;;;;2.00;2.00;;;;;20.96;40.44;101920.75;5078502;27;45227;-53
2022/03/17 02:42:57;;;;;;;;;3.50;3.50;;;;;20.96;40.43;101921.63;5077711;27;45338;-52
2022/03/17 02:45:23;;;;;;;;;2.25;2.25;;;;;20.95;40.67;101914.66;5077830;27;45244;-51
2022/03/17 02:47:48;;;;;;;;;2.00;2.00;;;;;20.93;40.67;101913.84;5078021;27;45466;-54
2022/03/17 02:50:14;;;;;;;;;5.00;3.25;;;;;20.92;40.34;101927.94;5078133;27;45433;-53
2022/03/17 02:52:40;;;;;;;;;2.50;2.50;;;;;20.94;40.24;101951.63;5077696;28;45517;-55
2022/03/17 02:55:06;;;;;;;;;3.00;2.50;;;;;20.94;40.54;101951.63;5077778;27;45334;-52
2022/03/17 02:57:32;;;;;;;;;4.00;2.50;;;;;20.92;40.09;101950.81;5078019;27;45379;-53
2022/03/17 02:59:57;;;;;;;;;3.25;2.25;;;;;20.92;40.41;101949.03;5078113;27;45487;-54
2022/03/17 03:02:23;;;;;;;;;2.25;2.25;;;;;20.91;40.56;101943.81;5077759;27;45720;-52
2022/03/17 03:04:48;;;;;;;;;2.00;2.00;;;;;20.91;40.22;101946.47;5077531;27;45185;-54
2022/03/17 03:07:14;;;;;;;;;3.00;3.00;;;;;20.90;40.53;101956.13;5077729;27;45167;-55
2022/03/17 03:09:39;;;;;;;;;4.00;4.00;;;;;20.89;40.11;101953.56;5077780;28;45207;-52
2022/03/17 03:12:05;;;;;;;;;3.00;3.00;;;;;20.88;40.23;101962.38;5075968;28;47127;-54
2022/03/17 03:14:31;;;;;;;;;1.50;1.25;;;;;20.87;40.52;101964.16;5077606;27;45279;-53
2022/03/17 03:16:57;;;;;;;;;4.00;3.00;;;;;20.87;40.14;101976.47;5077478;28;45214;-54
2022/03/17 03:19:23;;;;;;;;;2.00;2.00;;;;;20.84;40.16;101967.75;5077832;27;45456;-55
2022/03/17 03:21:48;;;;;;;;;3.75;3.00;;;;;20.84;39.91;101980.94;5077203;27;47168;-55
2022/03/17 03:24:14;;;;;;;;;2.75;2.75;;;;;20.84;39.92;101972.19;5077188;27;45945;-54
2022/03/17 03:26:43;;;;;;;;;2.00;2.00;;;;;20.84;40.23;101980.09;5077332;27;45348;-51
2022/03/17 03:29:21;;;;;;;;;3.00;1.00;;;;;20.81;40.44;101972.28;5077706;27;45577;-53
2022/03/17 03:31:48;;;;;;;;;2.00;2.00;;;;;20.81;40.26;101967.03;5076175;27;46422;-54
2022/03/17 03:34:13;;;;;;;;;3.00;3.00;;;;;20.82;40.30;101976.66;5077303;27;45424;-54
2022/03/17 03:39:22;;;;;;;;;2.25;2.25;;;;;20.78;40.38;101983.81;5077238;28;45383;-54
2022/03/17 03:41:48;;;;;;;;;1.00;1.00;;;;;20.78;39.92;101993.50;5076912;27;49458;-54
2022/03/17 03:44:14;;;;;;;;;2.00;2.00;;;;;20.77;40.10;101997.91;5076997;27;45377;-55
2022/03/17 03:46:40;;;;;;;;;4.00;2.75;;;;;20.77;39.95;102007.59;5077145;27;45440;-54
2022/03/17 03:49:06;;;;;;;;;2.50;2.25;;;;;20.76;39.83;102011.16;5077247;28;45548;-56
2022/03/17 03:51:31;;;;;;;;;2.25;2.25;;;;;20.76;39.89;102017.25;5077103;27;46081;-55
2022/03/17 03:56:41;;;;;;;;;5.00;3.00;;;;;20.74;39.93;102039.28;5076845;28;45496;-52
2022/03/17 03:59:20;;;;;;;;;2.00;2.00;;;;;20.73;40.29;102048.94;5076948;27;45330;-53
2022/03/17 04:01:47;;;;;;;;;2.50;2.50;;;;;20.73;40.22;102050.75;5076571;28;45544;-55
2022/03/17 04:04:21;;;;;;;;;2.50;2.50;;;;;20.72;40.18;102049.03;5076627;27;45260;-54
2022/03/17 04:06:58;;;;;;;;;1.00;1.00;;;;;20.71;39.75;102056.06;5076801;27;45395;-56
2022/03/17 04:09:26;;;;;;;;;1.00;1.00;;;;;20.69;39.87;102053.47;5075524;28;45560;-52
2022/03/17 04:11:52;;;;;;;;;2.25;2.25;;;;;20.68;39.60;102067.56;5076501;27;45397;-53
2022/03/17 04:14:18;;;;;;;;;1.00;1.00;;;;;20.69;40.10;102071.91;5076520;28;45513;-54
2022/03/17 04:16:44;;;;;;;;;3.75;2.75;;;;;20.69;40.13;102074.56;5076750;27;45343;-54
2022/03/17 04:19:10;;;;;;;;;2.00;2.00;;;;;20.67;40.03;102079.00;5076790;27;45588;-55
2022/03/17 04:21:35;;;;;;;;;1.00;1.00;;;;;20.66;40.22;102081.72;5076666;27;46475;-53
2022/03/17 04:24:01;;;;;;;;;2.00;2.00;;;;;20.66;39.71;102086.97;5076488;27;45433;-54
2022/03/17 04:26:27;;;;;;;;;1.50;1.50;;;;;20.65;39.98;102087.91;5076654;27;45374;-55
2022/03/17 04:28:53;;;;;;;;;2.00;2.00;;;;;20.64;40.19;102092.31;5076737;27;45308;-52
2022/03/17 04:31:20;;;;;;;;;1.75;1.75;;;;;20.63;39.86;102093.22;5076396;27;45344;-53
2022/03/17 04:33:46;;;;;;;;;1.75;1.75;;;;;20.61;40.03;102102.97;5076345;27;45270;-52
2022/03/17 04:36:12;;;;;;;;;1.00;1.00;;;;;20.60;39.97;102103.88;5076547;27;45398;-51
2022/03/17 04:38:38;;;;;;;;;1.00;1.00;;;;;20.60;39.74;102106.50;5076580;27;45923;-55
2022/03/17 04:41:04;;;;;;;;;2.25;2.25;;;;;20.58;40.09;102113.59;5076416;27;45355;-53
2022/03/17 04:43:29;;;;;;;;;2.75;2.00;;;;;20.57;39.62;102127.69;5078673;27;45250;-53
2022/03/17 04:45:55;;;;;;;;;2.00;2.00;;;;;20.55;39.54;102121.63;5079618;27;47728;-53
2022/03/17 04:48:20;;;;;;;;;2.00;2.00;;;;;20.53;39.36;102126.09;5080217;27;45479;-49
2022/03/17 04:50:46;;;;;;;;;3.00;1.00;;;;;20.54;39.96;102127.81;5079537;27;46575;-52
2022/03/17 04:53:30;;;;;;;;;1.00;1.00;;;;;20.52;39.69;102141.00;5079702;27;45305;-53
2022/03/17 04:55:59;;;;;;;;;2.00;2.00;;;;;20.51;39.79;102133.16;5078465;28;45365;-52
2022/03/17 04:58:25;;;;;;;;;1.75;1.75;;;;;20.49;39.40;102138.50;5079698;27;45332;-52
2022/03/17 05:00:52;;;;;;;;;1.50;1.50;;;;;20.49;39.91;102145.53;5079478;27;45564;-50
2022/03/17 05:03:19;;;;;;;;;1.00;1.00;;;;;20.47;39.77;102152.63;5078211;28;45726;-51
2022/03/17 05:05:44;;;;;;;;;2.00;1.00;;;;;20.46;39.64;102150.88;5079585;27;45424;-51
2022/03/17 05:08:10;;;;;;;;;1.25;1.25;;;;;20.44;39.43;102158.84;5079828;27;45402;-52
2022/03/17 05:10:36;;;;;;;;;1.25;1.25;;;;;20.43;39.54;102161.56;5078058;28;49218;-55
2022/03/17 05:13:05;;;;;;;;;1.25;1.25;;;;;20.42;39.30;102162.47;5079515;27;45845;-51
2022/03/17 05:15:30;;;;;;;;;1.00;1.00;;;;;20.39;39.31;102156.38;5079313;27;45521;-52
2022/03/17 05:17:56;;;;;;;;;2.00;1.25;;;;;20.41;39.67;102166.84;5079492;27;45285;-53
2022/03/17 05:20:22;;;;;;;;;1.75;1.75;;;;;20.38;39.77;102162.56;5079043;27;51595;-55
2022/03/17 05:22:48;;;;;;;;;2.75;1.75;;;;;20.40;39.67;102170.38;5079343;27;45330;-54
2022/03/17 05:25:14;;;;;;;;;2.00;2.00;;;;;20.39;39.03;102182.72;5079475;27;45247;-56
2022/03/17 05:27:42;;;;;;;;;1.50;1.50;;;;;20.39;39.22;102182.72;5079545;27;45719;-55
2022/03/17 05:30:13;;;;;;;;;3.00;3.00;;;;;20.39;39.17;102180.06;5079389;27;46188;-55
2022/03/17 05:32:39;;;;;;;;;4.50;4.00;;;;;20.39;39.07;102187.97;5079581;27;45412;-54
2022/03/17 05:35:05;;;;;;;;;13.75;12.00;;;;;20.38;38.68;102191.53;5078403;28;45393;-55
2022/03/17 05:37:31;;;;;;;;;17.25;13.75;;;;;20.38;39.11;102191.53;5079334;27;45492;-54
2022/03/17 05:39:56;;;;;;;;;19.25;18.50;;;;;20.38;38.45;102194.16;5078854;27;45455;-55
2022/03/17 05:42:21;;;;;;;;;24.67;22.67;;;;;20.38;38.50;102195.94;5078792;28;46512;-55
2022/03/17 05:44:47;;;;;;;;;26.33;22.67;;;;;20.39;38.54;102209.03;5078954;27;45314;-54
2022/03/17 05:47:12;;;;;;;;;30.75;30.50;;;;;20.38;38.58;102209.94;5079081;27;45314;-55
2022/03/17 05:49:37;;;;;;;;;29.25;24.00;;;;;20.37;38.50;102210.00;5078942;27;46863;-56
2022/03/17 05:52:03;;;;;;;;;35.25;31.25;;;;;20.33;38.14;102222.44;5078853;27;45414;-55
2022/03/17 05:54:29;;;;;;;;;30.50;29.50;;;;;20.31;38.44;102226.00;5076884;27;45463;-55
2022/03/17 05:56:54;;;;;;;;;42.00;35.75;;;;;20.30;38.10;102224.28;5078922;27;45440;-54
2022/03/17 05:59:20;;;;;;;;;35.25;32.50;;;;;20.27;38.64;102227.03;5078408;28;45386;-55
2022/03/17 06:01:45;;;;;;;;;36.25;31.25;;;;;20.22;38.43;102241.19;5078577;27;45343;-56
2022/03/17 06:04:11;;;;;;;;;44.00;35.75;;;;;20.21;37.99;102241.25;5079074;27;45276;-54
2022/03/17 06:06:36;;;;;;;;;33.25;28.25;;;;;20.19;38.33;102243.06;5079174;27;45470;-55
2022/03/17 06:09:01;;;;;;;;;34.50;32.50;;;;;20.18;37.92;102251.84;5078172;27;53922;-55
2022/03/17 06:11:28;;;;;;;;;40.00;33.50;;;;;20.16;38.13;102249.28;5078243;27;45335;-54
2022/03/17 06:13:56;;;;;;;;;38.25;32.25;;;;;20.13;38.24;102248.50;5078443;27;45248;-54
2022/03/17 06:16:22;;;;;;;;;33.75;32.50;;;;;20.11;37.98;102252.97;5078463;27;45620;-53
2022/03/17 06:18:47;;;;;;;;;33.25;28.25;;;;;20.08;37.72;102262.69;5078259;27;46278;-54
2022/03/17 06:21:13;;;;;;;;;27.25;26.25;;;;;20.07;38.27;102282.00;5078259;27;45394;-55
2022/03/17 06:23:38;;;;;;;;;26.25;23.75;;;;;20.05;38.19;102283.81;5078605;27;45390;-55
2022/03/17 06:26:04;;;;;;;;;29.75;27.75;;;;;20.04;38.24;102282.09;5078439;27;45710;-55
2022/03/17 06:28:29;;;;;;;;;22.50;20.50;;;;;20.02;37.75;102291.81;5078072;27;45912;-53
2022/03/17 06:30:54;;;;;;;;;24.50;21.50;;;;;20.02;38.16;102290.94;5078114;27;45611;-51
2022/03/17 06:33:20;;;;;;;;;25.75;21.50;;;;;20.00;37.73;102303.28;5076971;28;45323;-55
2022/03/17 06:35:46;;;;;;;;;27.25;21.00;;;;;19.99;37.62;102306.81;5078374;27;45438;-52
2022/03/17 06:38:11;;;;;;;;;28.25;25.25;;;;;19.96;37.64;102305.16;5078132;27;46135;-53
2022/03/17 06:40:37;;;;;;;;;23.25;22.25;;;;;19.98;37.53;102321.78;5077951;28;45393;-53
2022/03/17 06:43:03;;;;;;;;;18.75;17.75;;;;;19.94;37.52;102312.22;5078131;27;45465;-56
2022/03/17 06:45:28;;;;;;;;;20.75;20.00;;;;;19.94;37.49;102328.00;5078080;27;45578;-55
2022/03/17 06:47:54;;;;;;;;;21.75;18.75;;;;;19.93;37.59;102326.28;5077797;27;45277;-54
2022/03/17 06:50:21;;;;;;;;;14.75;14.75;;;;;19.92;37.77;102335.97;5077827;27;45254;-53
2022/03/17 06:52:48;;;;;;;;;16.00;14.00;;;;;19.91;37.53;102346.50;5077982;28;45313;-54
2022/03/17 06:55:13;;;;;;;;;16.00;14.50;;;;;19.89;37.68;102353.63;5078333;27;45562;-54
2022/03/17 06:57:39;;;;;;;;;15.00;12.75;;;;;19.89;37.27;102356.25;5077516;27;46796;-54
2022/03/17 07:00:06;;;;;;;;;11.00;11.00;;;;;19.87;37.60;102353.63;5077758;28;45518;-53
2022/03/17 07:02:32;;;;;;;;;13.00;12.75;;;;;19.86;37.49;102359.81;5077607;27;45472;-53
2022/03/17 07:04:58;;;;;;;;;12.50;12.50;;;;;19.85;37.38;102359.81;5076808;27;45522;-53
2022/03/17 07:07:23;;;;;;;;;10.25;10.25;;;;;19.84;37.57;102374.75;5077579;27;45675;-53
2022/03/17 07:09:49;;;;;;;;;12.75;10.25;;;;;19.83;37.42;102380.06;5077369;27;45519;-55
2022/03/17 07:12:14;;;;;;;;;10.50;9.25;;;;;19.82;37.28;102381.84;5077857;27;45277;-55
2022/03/17 07:14:40;;;;;;;;;4.50;4.50;;;;;19.83;37.34;102383.56;5077956;27;45223;-57
2022/03/17 07:17:05;;;;;;;;;8.75;8.75;;;;;19.82;37.71;102378.31;5076026;28;45358;-55
2022/03/17 07:19:31;;;;;;;;;11.25;10.00;;;;;19.83;37.55;102390.56;5077226;27;45252;-55
2022/03/17 07:21:56;;;;;;;;;11.25;9.50;;;;;19.83;37.55;102399.34;5077322;27;45343;-56
2022/03/17 07:24:22;;;;;;;;;8.00;7.50;;;;;19.82;37.17;102402.00;5077533;27;45164;-56
2022/03/17 07:26:47;;;;;;;;;8.50;7.00;;;;;19.83;37.22;102411.63;5077347;27;46786;-55
2022/03/17 07:29:13;;;;;;;;;7.25;6.00;;;;;19.82;37.12;102412.53;5076328;28;45374;-55
2022/03/17 07:31:38;;;;;;;;;8.50;7.50;;;;;19.83;37.54;102419.50;5077495;27;45208;-57
2022/03/17 07:34:04;;;;;;;;;6.50;6.00;;;;;19.80;37.02;102420.47;5076202;27;45379;-55
2022/03/17 07:36:29;;;;;;;;;8.00;5.00;;;;;19.80;37.39;102422.22;5077049;27;46177;-55
2022/03/17 07:38:56;;;;;;;;;7.00;6.00;;;;;19.81;37.45;102426.59;5076944;27;45322;-56
2022/03/17 07:41:22;;;;;;;;;6.50;5.75;;;;;19.81;37.27;102431.84;5076063;28;45849;-54
2022/03/17 07:43:47;;;;;;;;;5.00;5.00;;;;;19.81;37.32;102427.47;5076139;27;45509;-55
2022/03/17 07:46:14;;;;;;;;;6.00;6.00;;;;;19.80;37.32;102432.75;5077240;27;46067;-57
2022/03/17 07:48:41;;;;;;;;;5.50;5.50;;;;;19.81;37.40;102437.09;5076853;27;45247;-55
2022/03/17 07:51:07;;;;;;;;;5.25;5.25;;;;;19.80;37.31;102430.13;5076909;27;45385;-56
2022/03/17 07:53:32;;;;;;;;;6.50;5.50;;;;;19.80;37.60;102430.13;5077308;28;45334;-55
2022/03/17 07:55:58;;;;;;;;;4.00;3.50;;;;;19.80;37.72;102435.38;5076797;27;46156;-55
2022/03/17 07:58:26;;;;;;;;;4.75;3.50;;;;;19.77;37.37;102441.59;5076680;27;45330;-55
2022/03/17 08:00:52;;;;;;;;;3.25;3.25;;;;;19.80;37.40;102456.44;5076955;27;45327;-57
2022/03/17 08:03:18;;;;;;;;;4.25;4.25;;;;;19.77;37.30;102460.88;5077106;28;45465;-56
2022/03/17 08:05:46;;;;;;;;;4.50;3.50;;;;;19.77;37.75;102463.53;5076894;27;45954;-54
2022/03/17 08:08:12;;;;;;;;;4.75;2.75;;;;;19.76;37.78;102459.16;5076748;27;45793;-55
2022/03/17 08:10:37;;;;;;;;;2.50;2.50;;;;;19.76;37.62;102467.06;5076875;28;45247;-56
2022/03/17 08:13:04;;;;;;;;;2.50;2.50;;;;;19.75;37.34;102473.22;5075733;28;45546;-55
2022/03/17 08:15:29;;;;;;;;;5.00;3.00;;;;;19.76;37.19;102477.56;5076212;27;46332;-56
2022/03/17 08:17:55;;;;;;;;;2.00;1.00;;;;;19.75;37.12;102481.09;5076163;27;45395;-55
2022/03/17 08:20:20;;;;;;;;;1.00;1.00;;;;;19.75;37.66;102483.75;5076461;27;45338;-52
2022/03/17 08:22:47;;;;;;;;;6.00;3.50;;;;;19.74;37.53;102489.91;5076993;27;45315;-54
2022/03/17 08:25:16;;;;;;;;;3.00;2.25;;;;;19.75;37.38;102494.25;5076561;27;45351;-56
2022/03/17 08:27:42;;;;;;;;;3.50;3.00;;;;;19.74;37.27;102504.81;5076546;27;45321;-55
2022/03/17 08:30:08;;;;;;;;;4.00;3.00;;;;;19.74;37.13;102504.81;5076576;27;45252;-55
2022/03/17 08:32:34;;;;;;;;;4.75;3.00;;;;;19.72;37.09;102504.84;5076645;27;45307;-56
2022/03/17 08:34:59;;;;;;;;;1.75;1.75;;;;;19.72;37.29;102510.13;5076197;27;46111;-55
2022/03/17 08:37:25;;;;;;;;;2.00;2.00;;;;;19.71;36.94;102505.75;5076260;27;45435;-55
2022/03/17 08:39:51;;;;;;;;;2.25;2.00;;;;;19.72;37.08;102525.91;5076301;28;45364;-55
2022/03/17 08:42:16;;;;;;;;;1.00;1.00;;;;;19.70;36.93;102519.81;5075708;28;45441;-57
2022/03/17 08:44:41;;;;;;;;;2.00;2.00;;;;;19.71;36.67;102525.94;5076276;27;46160;-55
2022/03/17 08:49:51;;;;;;;;;2.75;2.75;;;;;19.71;36.59;102552.25;5076415;28;45440;-55
2022/03/17 08:52:16;;;;;;;;;1.75;1.75;;;;;19.70;36.97;102556.63;5076961;27;45424;-56
2022/03/17 08:54:44;;;;;;;;;2.25;2.00;;;;;19.69;37.09;102552.28;5076192;28;46054;-54
2022/03/17 08:57:11;;;;;;;;;2.25;2.00;;;;;19.69;37.03;102560.16;5076253;27;45861;-58
2022/03/17 08:59:37;;;;;;;;;1.25;1.25;;;;;19.69;36.97;102573.31;5076169;27;45313;-56
2022/03/17 09:02:11;;;;;;;;;1.00;1.00;;;;;19.69;37.44;102575.94;5076249;27;45451;-55
2022/03/17 09:04:37;;;;;;;;;3.50;2.00;;;;;19.69;37.24;102580.34;5075733;27;45491;-56
2022/03/17 09:07:03;;;;;;;;;2.75;1.50;;;;;19.68;36.82;102579.47;5074605;28;45416;-55
2022/03/17 09:09:33;;;;;;;;;3.00;3.00;;;;;19.67;36.96;102576.91;5076085;27;45621;-55
2022/03/17 09:11:59;;;;;;;;;2.00;2.00;;;;;19.68;36.94;102578.63;5076264;27;45517;-56
2022/03/17 09:14:25;;;;;;;;;3.50;2.00;;;;;19.66;36.66;102576.03;5075750;27;45529;-53
2022/03/17 09:16:51;;;;;;;;;1.00;1.00;;;;;19.67;36.84;102587.41;5076151;27;45719;-56
2022/03/17 09:19:19;;;;;;;;;2.25;1.25;;;;;19.67;36.99;102585.66;5076212;27;45272;-56
2022/03/17 09:21:45;;;;;;;;;3.25;2.00;;;;;19.66;37.12;102585.69;5075911;27;45384;-56
2022/03/17 09:24:11;;;;;;;;;2.00;2.00;;;;;19.65;36.73;102579.56;5075616;28;46068;-55
2022/03/17 09:26:36;;;;;;;;;3.00;3.00;;;;;19.61;36.78;102583.16;5075822;28;45310;-53
2022/03/17 09:29:01;;;;;;;;;2.75;1.00;;;;;19.66;36.51;102599.72;5077521;27;45337;-55
2022/03/17 09:31:27;;;;;;;;;2.00;2.00;;;;;19.62;36.74;102591.00;5079216;27;45439;-55
2022/03/17 09:33:53;;;;;;;;;1.00;1.00;;;;;19.67;36.61;102597.94;5079121;27;45346;-54
2022/03/17 09:36:19;;;;;;;;;2.00;2.00;;;;;19.67;37.19;102611.09;5079453;27;45836;-57
2022/03/17 09:39:39;;;;;;;;;1.50;1.00;;;;;19.69;37.16;102610.16;5079074;28;45216;-56
2022/03/17 09:41:33;;;;;;;;;1.75;1.75;;;;;19.70;36.97;102619.78;5079259;28;45226;-54
2022/03/17 09:43:59;;;;;;;;;2.50;1.00;;;;;19.71;36.87;102610.97;5077721;27;47164;-54
2022/03/17 09:46:27;;;;;;;;;2.00;2.00;;;;;19.72;36.82;102617.13;5077629;28;45951;-53
2022/03/17 09:48:55;;;;;;;;;3.00;2.00;;;;;19.73;37.09;102616.22;5079245;27;45420;-53
2022/03/17 09:51:24;;;;;;;;;2.00;2.00;;;;;19.73;36.89;102619.72;5079478;27;45327;-54
2022/03/17 09:53:54;;;;;;;;;2.00;2.00;;;;;19.73;37.12;102617.06;5079123;27;46090;-54
2022/03/17 09:56:23;;;;;;;;;1.75;1.50;;;;;19.73;37.13;102619.72;5078840;27;45177;-56
2022/03/17 09:58:53;;;;;;;;;1.00;1.00;;;;;19.73;37.09;102632.00;5079057;27;45511;-55
2022/03/17 10:01:20;;;;;;;;;1.25;1.25;;;;;19.74;37.14;102626.69;5079346;27;45388;-54
2022/03/17 10:03:45;;;;;;;;;2.00;1.25;;;;;19.73;36.75;102632.88;5078679;27;45278;-54
2022/03/17 10:06:12;;;;;;;;;2.00;2.00;;;;;19.73;37.33;102630.22;5078668;27;45189;-55
2022/03/17 10:08:40;;;;;;;;;1.50;1.50;;;;;19.74;37.04;102631.97;5078543;27;45318;-53
2022/03/17 10:11:06;;;;;;;;;0.75;0.25;;;;;19.74;36.93;102642.50;5078748;27;45298;-55
2022/03/17 10:13:34;;;;;;;;;1.00;1.00;;;;;19.72;37.08;102631.13;5078436;27;45390;-56
2022/03/17 10:16:11;;;;;;;;;2.00;2.00;;;;;19.74;37.02;102636.34;5078310;27;45308;-55
2022/03/17 10:18:37;;;;;;;;;1.50;1.50;;;;;19.74;37.41;102641.59;5078483;27;45243;-56
2022/03/17 10:21:08;;;;;;;;;1.00;1.00;;;;;19.73;37.27;102646.00;5078324;27;45356;-56
2022/03/17 10:23:46;;;;;;;;;1.50;1.50;;;;;19.75;36.98;102652.13;5078373;27;45338;-54
2022/03/17 10:26:28;;;;;;;;;1.75;1.75;;;;;19.76;36.91;102656.47;5078253;27;45544;-53
2022/03/17 10:29:04;;;;;;;;;1.25;1.00;;;;;19.77;37.04;102647.69;5078646;27;45258;-56
2022/03/17 10:31:29;;;;;;;;;1.00;1.00;;;;;19.77;37.08;102663.47;5078502;27;45183;-56
2022/03/17 10:33:55;;;;;;;;;4.00;2.00;;;;;19.77;37.31;102666.09;5078119;27;46074;-56
2022/03/17 10:36:21;;;;;;;;;2.50;1.00;;;;;19.78;37.27;102669.59;5078387;27;45358;-54
2022/03/17 10:38:49;;;;;;;;;4.75;3.25;;;;;19.76;37.10;102664.38;5078327;27;45178;-54
2022/03/17 10:41:15;;;;;;;;;9.00;5.50;;;;;19.76;37.31;102672.25;5078188;27;45348;-53
2022/03/17 10:43:42;;;;;;;;;10.00;9.25;;;;;19.77;37.30;102674.00;5077965;28;46193;-55
2022/03/17 10:46:17;;;;;;;;;15.50;13.75;;;;;19.76;36.94;102679.28;5077896;27;45380;-55
2022/03/17 10:49:05;;;;;;;;;15.25;14.75;;;;;19.76;37.39;102680.16;5076694;27;45448;-54
2022/03/17 10:51:41;;;;;;;;;22.00;17.75;;;;;19.76;36.91;102677.53;5077977;27;45584;-55
2022/03/17 10:54:20;;;;;;;;;24.75;22.00;;;;;19.77;37.59;102683.63;5077877;27;45251;-55
2022/03/17 10:57:08;;;;;;;;;29.50;26.00;;;;;19.74;37.38;102684.59;5077651;27;45525;-53
2022/03/17 10:59:44;;;;;;;;;27.75;23.50;;;;;19.77;36.93;102689.78;5077745;27;45351;-56
2022/03/17 11:02:12;;;;;;;;;31.75;26.75;;;;;19.76;36.99;102693.31;5077923;27;45330;-55
2022/03/17 11:04:40;;;;;;;;;27.75;23.50;;;;;19.75;36.86;102699.47;5077645;27;45402;-53
2022/03/17 11:07:10;;;;;;;;;31.50;28.00;;;;;19.76;36.99;102703.84;5077519;27;46560;-54
2022/03/17 11:09:39;;;;;;;;;29.25;25.00;;;;;19.76;37.51;102703.84;5077578;27;45299;-55
2022/03/17 11:12:09;;;;;;;;;25.50;23.25;;;;;19.75;36.98;102703.84;5077749;27;45491;-57
2022/03/17 11:14:53;;;;;;;;;35.25;31.00;;;;;19.75;37.55;102702.09;5077204;27;46256;-55
2022/03/17 11:17:26;;;;;;;;;33.25;29.50;;;;;19.74;37.43;102705.63;5077323;27;45869;-54
2022/03/17 11:19:53;;;;;;;;;30.50;26.25;;;;;19.75;37.11;102714.38;5077778;27;45362;-55
2022/03/17 11:22:22;;;;;;;;;34.00;31.25;;;;;19.74;37.13;102703.00;5077714;27;45484;-57
2022/03/17 11:25:19;;;;;;;;;34.75;27.50;;;;;19.76;37.28;102708.22;5077001;27;45561;-56
2022/03/17 11:27:48;;;;;;;;;25.50;24.75;;;;;19.74;37.26;102712.63;5075913;27;45391;-55
2022/03/17 11:30:15;;;;;;;;;31.00;26.25;;;;;19.73;37.14;102711.78;5077231;27;45279;-56
2022/03/17 11:32:55;;;;;;;;;30.50;24.25;;;;;19.74;37.22;102710.88;5077532;27;45549;-56